createdAt,value
2022-08-26T00:03:46.370Z,27.49
2022-08-26T00:08:50.405Z,27.43
2022-08-26T00:13:53.050Z,27.61
2022-08-26T00:18:56.546Z,27.40
2022-08-26T00:24:00.537Z,26.98
2022-08-26T00:29:03.214Z,27.10
2022-08-26T00:34:09.488Z,26.98
2022-08-26T00:39:15.141Z,27.11
2022-08-26T00:44:18.154Z,26.95
2022-08-26T00:49:23.901Z,27.09
2022-08-26T00:54:31.694Z,26.88
2022-08-26T00:59:34.460Z,27.34
2022-08-26T01:04:38.155Z,26.82
2022-08-26T01:09:42.199Z,27.02
2022-08-26T01:14:46.460Z,27.27
2022-08-26T01:19:52.367Z,27.07
2022-08-26T01:24:56.952Z,27.09
2022-08-26T01:30:01.735Z,26.92
2022-08-26T01:35:05.829Z,26.65
2022-08-26T01:40:15.212Z,26.80
2022-08-26T01:45:21.831Z,26.90
2022-08-26T01:50:30.248Z,26.35
2022-08-26T01:55:35.768Z,26.32
2022-08-26T02:00:39.289Z,26.19
2022-08-26T02:05:42.035Z,26.05
2022-08-26T02:10:47.596Z,25.90
2022-08-26T02:15:50.347Z,25.97
2022-08-26T02:20:54.362Z,26.11
2022-08-26T02:26:03.911Z,25.79
2022-08-26T02:31:08.038Z,25.87
2022-08-26T02:36:13.507Z,25.97
2022-08-26T02:41:19.592Z,25.97
2022-08-26T02:46:29.785Z,25.95
2022-08-26T02:51:32.929Z,26.11
2022-08-26T02:56:37.559Z,26.10
2022-08-26T03:01:41.089Z,25.97
2022-08-26T03:06:43.911Z,25.78
2022-08-26T03:11:57.787Z,25.48
2022-08-26T03:17:00.595Z,25.76
2022-08-26T03:22:03.892Z,25.70
2022-08-26T03:27:08.046Z,25.54
2022-08-26T03:32:10.746Z,25.87
2022-08-26T03:37:13.450Z,25.39
2022-08-26T03:42:17.554Z,25.26
2022-08-26T03:47:24.765Z,25.33
2022-08-26T03:52:27.743Z,25.42
2022-08-26T03:57:32.349Z,25.49
2022-08-26T04:02:35.595Z,25.37
2022-08-26T04:07:39.130Z,25.46
2022-08-26T04:12:43.314Z,25.88
2022-08-26T04:17:47.184Z,25.92
2022-08-26T04:22:49.890Z,26.07
2022-08-26T04:27:54.883Z,25.84
2022-08-26T04:32:57.580Z,26.07
2022-08-26T04:38:00.499Z,25.67
2022-08-26T04:43:05.279Z,26.07
2022-08-26T04:48:08.718Z,25.80
2022-08-26T04:53:13.894Z,26.05
2022-08-26T04:58:19.332Z,26.30
2022-08-26T05:03:22.416Z,26.34
2022-08-26T05:08:25.269Z,26.45
2022-08-26T05:13:29.534Z,26.48
2022-08-26T05:18:32.948Z,26.60
2022-08-26T05:23:36.721Z,26.57
2022-08-26T05:28:41.154Z,26.65
2022-08-26T05:33:46.618Z,26.68
2022-08-26T05:38:49.722Z,26.68
2022-08-26T05:43:53.779Z,26.65
2022-08-26T05:48:56.887Z,26.67
2022-08-26T05:54:00.170Z,26.78
2022-08-26T05:59:05.043Z,26.75
2022-08-26T06:04:08.072Z,26.74
2022-08-26T06:09:11.470Z,26.71
2022-08-26T06:14:15.589Z,26.73
2022-08-26T06:19:19.185Z,26.73
2022-08-26T06:24:39.974Z,26.78
2022-08-26T06:29:44.168Z,26.69
2022-08-26T06:34:47.199Z,26.61
2022-08-26T06:39:51.279Z,26.76
2022-08-26T06:44:55.519Z,26.76
2022-08-26T06:49:58.397Z,26.67
2022-08-26T06:55:01.165Z,26.73
2022-08-26T07:00:07.656Z,26.72
2022-08-26T07:05:11.278Z,26.83
2022-08-26T07:10:14.837Z,26.79
2022-08-26T07:15:19.671Z,26.84
2022-08-26T07:20:30.093Z,26.88
2022-08-26T07:25:32.791Z,26.70
2022-08-26T07:30:40.840Z,26.76
2022-08-26T07:35:44.458Z,26.79
2022-08-26T07:40:47.367Z,26.68
2022-08-26T07:45:51.678Z,26.77
2022-08-26T07:50:54.650Z,26.65
2022-08-26T07:55:58.926Z,26.75
2022-08-26T08:01:03.070Z,26.55
2022-08-26T08:06:08.280Z,26.50
2022-08-26T08:11:12.552Z,26.77
2022-08-26T08:16:16.732Z,26.66
2022-08-26T08:21:22.084Z,26.74
2022-08-26T08:26:27.342Z,26.66
2022-08-26T08:31:55.803Z,26.78
2022-08-26T08:36:55.722Z,26.78
2022-08-26T08:42:10.940Z,26.73
2022-08-26T08:47:19.642Z,26.80
2022-08-26T08:52:30.999Z,26.78
2022-08-26T08:57:42.326Z,26.77
2022-08-26T09:02:53.863Z,26.45
2022-08-26T09:07:59.998Z,26.67
2022-08-26T09:13:05.300Z,26.70
2022-08-26T09:18:13.295Z,26.82
2022-08-26T09:23:16.169Z,26.78
2022-08-26T09:28:23.534Z,26.82
2022-08-26T09:33:30.861Z,26.43
2022-08-26T09:38:35.000Z,26.71
2022-08-26T09:43:37.712Z,26.80
2022-08-26T09:48:43.620Z,26.58
2022-08-26T09:53:52.707Z,26.86
2022-08-26T09:58:57.552Z,26.87
2022-08-26T10:04:07.906Z,26.84
2022-08-26T10:09:14.087Z,26.79
2022-08-26T10:14:20.548Z,26.72
2022-08-26T10:19:29.270Z,26.75
2022-08-26T10:24:54.939Z,26.69
2022-08-26T10:30:03.331Z,26.73
2022-08-26T10:35:10.671Z,26.74
2022-08-26T10:40:16.939Z,26.75
2022-08-26T10:45:22.035Z,26.72
2022-08-26T10:50:32.090Z,26.78
2022-08-26T10:55:38.170Z,26.82
2022-08-26T11:01:01.195Z,26.70
2022-08-26T11:06:22.871Z,26.76
2022-08-26T11:11:52.623Z,26.76
2022-08-26T11:16:56.881Z,26.72
2022-08-26T11:22:06.511Z,26.65
2022-08-26T11:27:12.204Z,26.71
2022-08-26T11:32:26.096Z,26.61
2022-08-26T11:37:34.244Z,26.69
2022-08-26T11:42:39.449Z,26.72
2022-08-26T11:47:42.311Z,26.75
2022-08-26T11:53:01.681Z,26.67
2022-08-26T11:58:05.843Z,26.72
2022-08-26T12:03:09.885Z,26.67
2022-08-26T12:08:16.511Z,26.66
2022-08-26T12:13:23.024Z,26.70
2022-08-26T12:18:29.243Z,26.62
2022-08-26T12:23:42.190Z,26.60
2022-08-26T12:28:48.284Z,26.56
2022-08-26T12:33:51.282Z,26.59
2022-08-26T12:38:58.324Z,26.57
2022-08-26T12:44:01.362Z,26.56
2022-08-26T12:49:04.311Z,26.66
2022-08-26T12:54:15.817Z,26.50
2022-08-26T12:59:24.926Z,26.68
2022-08-26T13:04:38.838Z,26.51
2022-08-26T13:09:43.066Z,26.60
2022-08-26T13:14:46.128Z,26.50
2022-08-26T13:19:48.915Z,26.60
2022-08-26T13:24:55.216Z,26.57
2022-08-26T13:29:59.046Z,26.59
2022-08-26T13:35:05.515Z,26.54
2022-08-26T13:40:12.082Z,26.60
2022-08-26T13:45:14.841Z,26.46
2022-08-26T13:50:17.621Z,26.45
2022-08-26T13:55:21.856Z,26.50
2022-08-26T14:00:24.639Z,26.60
2022-08-26T14:05:27.762Z,26.61
2022-08-26T14:10:31.893Z,26.54
2022-08-26T14:15:35.789Z,26.63
2022-08-26T14:20:39.482Z,26.56
2022-08-26T14:25:43.685Z,26.49
2022-08-26T14:30:49.235Z,26.52
2022-08-26T14:35:51.945Z,26.53
2022-08-26T14:40:56.120Z,26.50
2022-08-26T14:45:58.805Z,26.55
2022-08-26T14:51:01.510Z,26.55
2022-08-26T14:56:05.990Z,26.47
2022-08-26T15:01:08.673Z,26.55
2022-08-26T15:06:11.461Z,26.62
2022-08-26T15:11:18.298Z,26.55
2022-08-26T15:16:21.599Z,26.57
2022-08-26T15:21:24.813Z,26.58
2022-08-26T15:26:29.985Z,26.56
2022-08-26T15:31:33.610Z,26.64
2022-08-26T15:36:37.709Z,26.54
2022-08-26T15:41:42.045Z,26.59
2022-08-26T15:46:44.789Z,26.58
2022-08-26T15:51:50.223Z,26.60
2022-08-26T15:56:54.335Z,26.56
2022-08-26T16:01:57.079Z,26.49
2022-08-26T16:06:59.814Z,26.54
2022-08-26T16:12:04.372Z,26.63
2022-08-26T16:17:07.143Z,26.57
2022-08-26T16:22:09.794Z,26.54
2022-08-26T16:27:14.008Z,26.56
2022-08-26T16:32:16.800Z,26.41
2022-08-26T16:37:19.781Z,26.56
2022-08-26T16:42:23.921Z,26.50
2022-08-26T16:47:27.025Z,26.54
2022-08-26T16:52:30.173Z,26.49
2022-08-26T16:57:37.402Z,26.55
2022-08-26T17:02:40.467Z,26.53
2022-08-26T17:07:43.152Z,26.52
2022-08-26T17:12:47.225Z,26.45
2022-08-26T17:17:49.908Z,26.55
2022-08-26T17:22:54.877Z,26.53
2022-08-26T17:27:59.318Z,26.42
2022-08-26T17:33:02.089Z,26.51
2022-08-26T17:38:13.774Z,26.55
2022-08-26T17:43:18.302Z,26.54
2022-08-26T17:48:20.961Z,26.55
2022-08-26T17:53:24.036Z,26.50
2022-08-26T17:58:28.136Z,26.46
2022-08-26T18:03:31.968Z,26.12
2022-08-26T18:08:34.756Z,26.29
2022-08-26T18:13:47.077Z,26.12
2022-08-26T18:18:53.414Z,26.18
2022-08-26T18:23:56.391Z,26.32
2022-08-26T18:29:00.531Z,26.14
2022-08-26T18:34:03.805Z,26.09
2022-08-26T18:39:07.650Z,26.21
2022-08-26T18:44:13.880Z,26.11
2022-08-26T18:49:18.331Z,26.22
2022-08-26T18:59:30.704Z,25.52
2022-08-26T19:04:33.522Z,25.48
2022-08-26T19:09:36.471Z,25.34
2022-08-26T19:14:40.516Z,25.19
2022-08-26T19:19:43.310Z,25.23
2022-08-26T19:24:48.205Z,25.44
2022-08-26T19:29:52.292Z,25.64
2022-08-26T19:34:55.251Z,25.74
2022-08-26T19:39:57.935Z,25.57
2022-08-26T19:45:25.075Z,25.65
2022-08-26T19:50:29.649Z,25.71
2022-08-26T19:55:33.038Z,25.68
2022-08-26T20:00:39.665Z,25.75
2022-08-26T20:05:42.429Z,25.79
2022-08-26T20:10:46.700Z,25.54
2022-08-26T20:15:50.821Z,25.76
2022-08-26T20:21:10.950Z,25.70
2022-08-26T20:26:13.812Z,25.46
2022-08-26T20:31:19.138Z,25.46
2022-08-26T20:36:23.798Z,25.35
2022-08-26T20:41:27.490Z,24.92
2022-08-26T20:46:31.788Z,25.21
2022-08-26T20:51:35.069Z,25.27
2022-08-26T20:56:38.116Z,25.28
2022-08-26T21:01:42.699Z,25.39
2022-08-26T21:06:52.368Z,25.28
2022-08-26T21:11:55.888Z,25.15
2022-08-26T21:16:59.980Z,25.29
2022-08-26T21:22:02.725Z,25.25
2022-08-26T21:27:05.694Z,25.13
2022-08-26T21:32:09.833Z,25.26
2022-08-26T21:37:16.994Z,25.18
2022-08-26T21:42:19.827Z,25.02
2022-08-26T21:47:24.345Z,25.03
2022-08-26T21:52:27.458Z,24.82
2022-08-26T21:57:31.413Z,24.91
2022-08-26T22:02:36.775Z,25.06
2022-08-26T22:07:39.619Z,24.76
2022-08-26T22:12:42.351Z,24.78
2022-08-26T22:17:46.472Z,24.93
2022-08-26T22:22:49.208Z,24.80
2022-08-26T22:27:52.409Z,24.82
2022-08-26T22:32:56.786Z,24.59
2022-08-26T22:38:00.243Z,24.66
2022-08-26T22:43:03.195Z,24.77
2022-08-26T22:48:07.290Z,24.09
2022-08-26T22:53:10.049Z,24.00
2022-08-26T22:58:13.474Z,24.15
2022-08-26T23:03:18.634Z,23.80
2022-08-26T23:08:21.430Z,24.13
2022-08-26T23:13:24.148Z,24.00
2022-08-26T23:18:28.269Z,23.93
2022-08-26T23:23:31.164Z,23.57
2022-08-26T23:28:34.025Z,23.64
2022-08-26T23:33:55.649Z,23.57
2022-08-26T23:39:01.227Z,23.63
2022-08-26T23:44:05.234Z,23.63
2022-08-26T23:49:09.263Z,23.53
2022-08-26T23:54:12.562Z,23.80
2022-08-26T23:59:15.532Z,23.66
